Time;durP1;ratioP1;P1;durP2;ratioP2;P2;SDS_P1;SDS_P2;PMS_P1;PMS_P2;Temp;Humidity;BMP_temperature;BMP_pressure;BME280_temperature;BME280_humidity;BME280_pressure;Samples;Min_cycle;Max_cycle;Signal;HPM_P1;HPM_P2
2022/10/27 00:01:20;;;;;;;47.47;16.00;;;10.70;99.90;;;;;;5111934;28;20440;-75
2022/10/27 00:03:50;;;;;;;73.40;17.37;;;10.70;99.90;;;;;;5112023;28;20495;-75
2022/10/27 00:06:18;;;;;;;83.20;18.43;;;10.70;99.90;;;;;;5098028;28;20524;-75
2022/10/27 00:08:45;;;;;;;103.17;20.50;;;10.70;99.90;;;;;;5109215;28;20871;-75
2022/10/27 00:11:12;;;;;;;39.20;17.87;;;10.70;99.90;;;;;;5101791;28;21153;-73
2022/10/27 00:13:38;;;;;;;37.93;16.77;;;10.70;99.90;;;;;;5091612;28;20493;-75
2022/10/27 00:16:07;;;;;;;31.80;15.20;;;10.70;99.90;;;;;;5091524;28;20856;-75
2022/10/27 00:18:34;;;;;;;21.27;13.13;;;10.70;99.90;;;;;;5095704;28;20454;-73
2022/10/27 00:21:03;;;;;;;36.23;15.33;;;10.70;99.90;;;;;;5093900;28;20454;-74
2022/10/27 00:23:31;;;;;;;28.13;13.90;;;10.70;99.90;;;;;;5091596;28;20543;-73
2022/10/27 00:25:59;;;;;;;27.63;13.90;;;10.70;99.90;;;;;;5092540;28;20447;-74
2022/10/27 00:28:28;;;;;;;22.70;12.70;;;10.70;99.90;;;;;;5091310;28;20459;-74
2022/10/27 00:31:00;;;;;;;23.43;13.30;;;10.60;99.90;;;;;;5090872;28;20499;-74
2022/10/27 00:33:27;;;;;;;28.67;13.10;;;10.60;99.90;;;;;;5091139;28;20470;-74
2022/10/27 00:35:53;;;;;;;21.77;12.30;;;10.60;99.90;;;;;;5129726;28;20499;-75
2022/10/27 00:38:21;;;;;;;28.63;12.93;;;10.50;99.90;;;;;;5104423;27;20474;-75
2022/10/27 00:40:49;;;;;;;40.37;14.13;;;10.50;99.90;;;;;;5091226;28;20446;-75
2022/10/27 00:43:27;;;;;;;27.70;13.20;;;10.50;99.90;;;;;;5102123;28;20474;-74
2022/10/27 00:45:57;;;;;;;35.33;12.77;;;10.40;99.90;;;;;;5111981;28;20824;-73
2022/10/27 00:48:26;;;;;;;63.03;13.77;;;10.40;99.90;;;;;;5112760;28;20454;-73
2022/10/27 00:50:53;;;;;;;34.93;12.03;;;10.40;99.90;;;;;;5115514;28;20838;-73
2022/10/27 00:53:20;;;;;;;52.60;12.60;;;10.40;99.90;;;;;;5112889;28;20475;-73
2022/10/27 00:55:48;;;;;;;77.57;13.17;;;10.40;99.90;;;;;;5095111;28;20521;-73
2022/10/27 00:58:20;;;;;;;57.67;12.37;;;10.40;99.90;;;;;;5095453;28;20451;-73
2022/10/27 01:00:47;;;;;;;155.47;15.10;;;10.30;99.90;;;;;;5095188;28;20477;-73
2022/10/27 01:03:18;;;;;;;130.33;14.53;;;10.30;99.90;;;;;;5113145;28;21003;-73
2022/10/27 01:05:45;;;;;;;71.73;13.53;;;10.30;99.90;;;;;;5114498;28;20454;-73
2022/10/27 01:08:13;;;;;;;70.83;13.77;;;10.30;99.90;;;;;;5102671;28;20459;-73
2022/10/27 01:10:40;;;;;;;107.63;14.00;;;10.30;99.90;;;;;;5103388;28;21011;-73
2022/10/27 01:13:08;;;;;;;72.53;11.90;;;10.30;99.90;;;;;;5094985;28;20892;-73
2022/10/27 01:15:41;;;;;;;64.07;11.33;;;10.30;99.90;;;;;;5097539;28;21005;-73
2022/10/27 01:18:18;;;;;;;53.50;9.80;;;10.30;99.90;;;;;;5103526;27;20457;-73
2022/10/27 01:21:10;;;;;;;39.97;10.23;;;10.20;99.90;;;;;;5094673;28;20502;-73
2022/10/27 01:23:51;;;;;;;17.03;8.87;;;10.20;99.90;;;;;;5094737;28;20991;-73
2022/10/27 01:26:38;;;;;;;11.50;8.70;;;10.20;99.90;;;;;;5094883;28;20451;-73
2022/10/27 01:29:34;;;;;;;22.87;9.33;;;10.20;99.90;;;;;;5094378;28;20459;-73
2022/10/27 01:32:12;;;;;;;33.07;9.20;;;10.20;99.90;;;;;;5094096;28;20529;-73
2022/10/27 01:34:45;;;;;;;47.03;10.17;;;10.10;99.90;;;;;;5102316;27;20465;-73
2022/10/27 01:37:18;;;;;;;39.43;10.00;;;10.10;99.90;;;;;;5096542;28;20450;-73
2022/10/27 01:39:51;;;;;;;40.47;9.30;;;10.00;99.90;;;;;;5113817;28;20457;-73
2022/10/27 01:42:23;;;;;;;38.67;9.67;;;10.00;99.90;;;;;;5094001;28;20502;-74
2022/10/27 01:44:54;;;;;;;42.13;9.07;;;10.00;99.90;;;;;;5108930;28;20457;-74
2022/10/27 01:47:23;;;;;;;49.77;9.97;;;10.00;99.90;;;;;;5109967;28;20455;-74
2022/10/27 01:49:52;;;;;;;92.87;11.13;;;10.00;99.90;;;;;;5102199;28;20453;-74
2022/10/27 01:52:42;;;;;;;15.07;9.07;;;10.00;99.90;;;;;;5101856;28;21031;-74
2022/10/27 01:55:13;;;;;;;34.80;8.47;;;10.00;99.90;;;;;;5100002;28;20520;-74
2022/10/27 01:58:05;;;;;;;27.73;8.70;;;9.90;99.90;;;;;;5099346;28;20440;-74
2022/10/27 02:00:40;;;;;;;23.00;10.07;;;9.90;99.90;;;;;;5093610;28;20507;-74
2022/10/27 02:03:15;;;;;;;14.80;9.20;;;9.90;99.90;;;;;;5094118;28;20471;-74
2022/10/27 02:05:45;;;;;;;26.93;8.70;;;9.90;99.90;;;;;;5103984;28;21007;-74
2022/10/27 02:08:19;;;;;;;12.53;8.77;;;9.90;99.90;;;;;;5110918;28;20495;-75
2022/10/27 02:10:53;;;;;;;16.50;9.77;;;9.90;99.90;;;;;;5107584;28;20480;-74
2022/10/27 02:13:20;;;;;;;18.23;8.23;;;9.90;99.90;;;;;;5103681;28;20496;-74
2022/10/27 02:15:51;;;;;;;36.77;8.63;;;9.90;99.90;;;;;;5093723;28;20877;-74
2022/10/27 02:18:25;;;;;;;25.40;9.73;;;10.00;99.90;;;;;;5094944;28;20864;-74
2022/10/27 02:20:57;;;;;;;36.57;10.30;;;9.90;99.90;;;;;;5101537;28;20802;-74
2022/10/27 02:23:24;;;;;;;20.73;10.47;;;10.00;99.90;;;;;;5101215;28;20479;-74
2022/10/27 02:25:57;;;;;;;40.83;9.57;;;10.00;99.90;;;;;;5107722;28;20485;-74
2022/10/27 02:28:32;;;;;;;63.77;11.50;;;10.00;99.90;;;;;;5096237;28;20451;-75
2022/10/27 02:31:00;;;;;;;49.53;10.53;;;10.00;99.90;;;;;;5092976;28;20514;-74
2022/10/27 02:33:28;;;;;;;26.73;10.03;;;10.00;99.90;;;;;;5093314;28;21008;-74
2022/10/27 02:35:56;;;;;;;89.53;12.07;;;10.10;99.90;;;;;;5111124;27;20956;-74
2022/10/27 02:38:23;;;;;;;64.30;10.60;;;10.10;99.90;;;;;;5112329;28;20542;-74
2022/10/27 02:40:50;;;;;;;50.83;10.93;;;10.20;99.90;;;;;;5109610;28;20442;-74
2022/10/27 02:43:17;;;;;;;59.07;10.43;;;10.10;99.90;;;;;;5096939;28;20468;-74
2022/10/27 02:45:43;;;;;;;37.53;9.57;;;10.20;99.90;;;;;;5113695;28;20446;-74
2022/10/27 02:48:10;;;;;;;49.33;10.73;;;10.20;99.90;;;;;;5103973;28;20508;-74
2022/10/27 02:50:38;;;;;;;79.93;10.50;;;10.20;99.90;;;;;;5094830;28;20495;-74
2022/10/27 02:53:04;;;;;;;70.20;10.40;;;10.20;99.90;;;;;;5107562;28;20953;-74
2022/10/27 02:55:31;;;;;;;88.00;11.20;;;10.20;99.90;;;;;;5100330;28;20478;-74
2022/10/27 02:57:58;;;;;;;57.50;10.90;;;10.20;99.90;;;;;;5104481;28;20478;-74
2022/10/27 03:00:24;;;;;;;49.97;9.63;;;10.20;99.90;;;;;;5092841;28;21085;-74
2022/10/27 03:02:51;;;;;;;42.37;9.83;;;10.20;99.90;;;;;;5105691;28;20855;-74
2022/10/27 03:05:18;;;;;;;26.33;10.40;;;10.20;99.90;;;;;;5112268;28;20959;-74
2022/10/27 03:07:46;;;;;;;33.63;10.27;;;10.10;99.90;;;;;;5109632;28;20869;-74
2022/10/27 03:10:12;;;;;;;41.83;10.17;;;10.20;99.90;;;;;;5101273;28;20504;-74
2022/10/27 03:12:39;;;;;;;41.30;9.53;;;10.20;99.90;;;;;;5108990;27;20481;-75
2022/10/27 03:15:07;;;;;;;38.03;10.23;;;10.20;99.90;;;;;;5113065;28;20450;-74
2022/10/27 03:17:33;;;;;;;41.43;9.60;;;10.20;99.90;;;;;;5109962;28;20442;-74
2022/10/27 03:20:00;;;;;;;37.67;9.20;;;10.20;99.90;;;;;;5113118;28;20491;-74
2022/10/27 03:22:27;;;;;;;48.27;9.10;;;10.10;99.90;;;;;;5112742;28;20466;-74
2022/10/27 03:24:56;;;;;;;65.33;9.80;;;10.10;99.90;;;;;;5109522;28;20451;-74
2022/10/27 03:27:22;;;;;;;45.83;10.00;;;10.00;99.90;;;;;;5095307;28;21022;-74
2022/10/27 03:29:49;;;;;;;26.53;10.17;;;10.00;99.90;;;;;;5092296;28;20443;-74
2022/10/27 03:32:16;;;;;;;36.33;10.00;;;9.90;99.90;;;;;;5093184;28;20876;-74
2022/10/27 03:34:42;;;;;;;49.67;11.20;;;9.90;99.90;;;;;;5111746;28;20859;-74
2022/10/27 03:37:09;;;;;;;55.70;10.37;;;9.80;99.90;;;;;;5112222;28;20473;-74
2022/10/27 03:39:35;;;;;;;32.53;9.93;;;9.90;99.90;;;;;;5105452;28;20454;-74
2022/10/27 03:42:04;;;;;;;37.30;10.30;;;9.90;99.90;;;;;;5109332;28;20820;-74
2022/10/27 03:44:30;;;;;;;23.93;9.30;;;10.00;99.90;;;;;;5111959;28;20443;-74
2022/10/27 03:46:57;;;;;;;25.93;10.30;;;10.00;99.90;;;;;;5110184;28;20451;-74
2022/10/27 03:49:24;;;;;;;82.93;11.80;;;10.00;99.90;;;;;;5106407;28;20448;-74
2022/10/27 03:51:50;;;;;;;32.37;11.03;;;10.10;99.90;;;;;;5099571;28;20516;-74
2022/10/27 03:54:17;;;;;;;44.67;10.60;;;10.00;99.90;;;;;;5103878;28;20957;-74
2022/10/27 03:56:44;;;;;;;32.70;10.50;;;10.00;99.90;;;;;;5108420;28;20458;-75
2022/10/27 03:59:12;;;;;;;33.60;9.67;;;10.00;99.90;;;;;;5108417;28;20460;-74
2022/10/27 04:01:38;;;;;;;26.83;9.10;;;10.10;99.90;;;;;;5110051;28;20447;-74
2022/10/27 04:04:05;;;;;;;31.47;9.40;;;10.10;99.90;;;;;;5109448;28;20443;-74
2022/10/27 04:06:32;;;;;;;40.47;10.97;;;10.10;99.90;;;;;;5093036;28;20478;-74
2022/10/27 04:08:59;;;;;;;29.93;9.37;;;10.10;99.90;;;;;;5091611;28;20465;-74
2022/10/27 04:11:25;;;;;;;28.50;9.47;;;10.10;99.90;;;;;;5098051;28;20476;-74
2022/10/27 04:13:52;;;;;;;20.63;9.43;;;10.10;99.90;;;;;;5111986;28;20452;-75
2022/10/27 04:16:20;;;;;;;27.00;10.43;;;10.00;99.90;;;;;;5111798;28;20435;-74
2022/10/27 04:18:47;;;;;;;13.80;9.20;;;10.00;99.90;;;;;;5109295;28;20451;-75
2022/10/27 04:21:15;;;;;;;35.63;10.40;;;10.00;99.90;;;;;;5106438;28;20450;-74
2022/10/27 04:23:41;;;;;;;17.50;8.67;;;10.00;99.90;;;;;;5099589;28;20880;-74
2022/10/27 04:26:08;;;;;;;26.90;10.10;;;10.00;99.90;;;;;;5104045;28;20481;-75
2022/10/27 04:28:35;;;;;;;28.87;10.00;;;10.00;99.90;;;;;;5104916;28;20456;-74
2022/10/27 04:31:02;;;;;;;22.17;10.33;;;10.00;99.90;;;;;;5111262;28;20487;-74
2022/10/27 04:33:30;;;;;;;19.10;10.50;;;10.00;99.90;;;;;;5102207;28;20500;-74
2022/10/27 04:35:56;;;;;;;15.80;9.97;;;10.10;99.90;;;;;;5114640;28;20458;-74
2022/10/27 04:38:23;;;;;;;14.87;11.03;;;10.10;99.90;;;;;;5111414;28;20449;-74
2022/10/27 04:40:50;;;;;;;19.07;10.30;;;10.10;99.90;;;;;;5111570;28;20442;-74
2022/10/27 04:43:16;;;;;;;31.50;10.50;;;10.20;99.90;;;;;;5111499;28;20470;-74
2022/10/27 04:45:44;;;;;;;33.10;10.50;;;10.20;99.90;;;;;;5111299;28;20451;-74
2022/10/27 04:48:10;;;;;;;79.33;12.40;;;10.20;99.90;;;;;;5104626;28;20456;-74
2022/10/27 04:50:38;;;;;;;85.10;11.23;;;10.20;99.90;;;;;;5101018;28;20449;-74
2022/10/27 04:53:05;;;;;;;63.40;10.40;;;10.30;99.90;;;;;;5093346;28;20485;-74
2022/10/27 04:55:33;;;;;;;90.07;10.47;;;10.30;99.90;;;;;;5102110;28;20449;-74
2022/10/27 04:58:00;;;;;;;70.07;11.43;;;10.30;99.90;;;;;;5104450;28;20455;-74
2022/10/27 05:00:27;;;;;;;73.40;11.57;;;10.30;99.90;;;;;;5091203;28;20450;-73
2022/10/27 05:02:55;;;;;;;108.80;12.77;;;10.20;99.90;;;;;;5091956;28;21018;-74
2022/10/27 05:05:22;;;;;;;66.47;12.80;;;10.20;99.90;;;;;;5099180;28;20444;-74
2022/10/27 05:07:54;;;;;;;88.27;11.87;;;10.20;99.90;;;;;;5100502;28;20900;-74
2022/10/27 05:10:21;;;;;;;71.30;10.97;;;10.20;99.90;;;;;;5093296;28;20874;-74
2022/10/27 05:12:48;;;;;;;83.93;11.80;;;10.30;99.90;;;;;;5111256;28;20907;-74
2022/10/27 05:15:14;;;;;;;52.97;9.90;;;10.30;99.90;;;;;;5111396;28;20830;-74
2022/10/27 05:17:41;;;;;;;93.03;11.17;;;10.30;99.90;;;;;;5107088;28;20459;-74
2022/10/27 05:20:09;;;;;;;111.77;11.60;;;10.30;99.90;;;;;;5094769;28;20455;-74
2022/10/27 05:22:37;;;;;;;107.93;10.60;;;10.30;99.90;;;;;;5091087;28;20497;-74
2022/10/27 05:25:06;;;;;;;114.30;11.43;;;10.40;99.90;;;;;;5107537;28;20456;-74
2022/10/27 05:27:33;;;;;;;138.90;11.97;;;10.40;99.90;;;;;;5103779;28;20451;-73
2022/10/27 05:29:59;;;;;;;111.03;10.93;;;10.40;99.90;;;;;;5104428;28;20452;-73
2022/10/27 05:32:26;;;;;;;78.13;10.00;;;10.40;99.90;;;;;;5108653;28;20892;-74
2022/10/27 05:34:53;;;;;;;131.43;11.63;;;10.40;99.90;;;;;;5104142;27;20463;-74
2022/10/27 05:37:20;;;;;;;88.63;11.30;;;10.40;99.90;;;;;;5094013;28;20451;-74
2022/10/27 05:39:46;;;;;;;70.77;11.20;;;10.40;99.90;;;;;;5099310;28;20458;-74
2022/10/27 05:42:14;;;;;;;124.60;11.50;;;10.50;99.90;;;;;;5109340;28;20463;-73
2022/10/27 05:44:41;;;;;;;131.27;12.07;;;10.40;99.90;;;;;;5107907;28;20822;-74
2022/10/27 05:47:08;;;;;;;140.37;12.60;;;10.40;99.90;;;;;;5107054;28;20450;-74
2022/10/27 05:49:34;;;;;;;73.47;11.50;;;10.40;99.90;;;;;;5102547;28;20482;-74
2022/10/27 05:52:01;;;;;;;108.60;10.87;;;10.40;99.90;;;;;;5109308;28;20495;-74
2022/10/27 05:54:28;;;;;;;107.00;10.93;;;10.40;99.90;;;;;;5104670;28;21129;-74
2022/10/27 05:56:54;;;;;;;101.73;11.43;;;10.40;99.90;;;;;;5106222;28;20505;-74
2022/10/27 05:59:22;;;;;;;92.17;12.13;;;10.40;99.90;;;;;;5097679;28;20497;-74
2022/10/27 06:01:49;;;;;;;115.50;12.40;;;10.30;99.90;;;;;;5108794;28;20983;-73
2022/10/27 06:04:16;;;;;;;65.90;10.60;;;10.30;99.90;;;;;;5099234;28;20446;-73
2022/10/27 06:06:42;;;;;;;117.50;11.57;;;10.30;99.90;;;;;;5114174;28;20460;-73
2022/10/27 06:09:09;;;;;;;114.03;12.00;;;10.30;99.90;;;;;;5097866;28;20455;-73
2022/10/27 06:11:35;;;;;;;75.17;11.07;;;10.20;99.90;;;;;;5109236;28;20525;-75
2022/10/27 06:14:02;;;;;;;115.30;13.50;;;10.20;99.90;;;;;;5109036;28;20457;-75
2022/10/27 06:16:30;;;;;;;65.93;11.23;;;10.20;99.90;;;;;;5110210;28;20455;-75
2022/10/27 06:18:57;;;;;;;104.33;11.73;;;10.30;99.90;;;;;;5109926;28;20884;-74
2022/10/27 06:21:24;;;;;;;67.30;11.63;;;10.30;99.90;;;;;;5109879;28;20960;-75
2022/10/27 06:23:51;;;;;;;70.33;13.00;;;10.30;99.90;;;;;;5109680;28;20467;-75
2022/10/27 06:26:18;;;;;;;47.90;12.17;;;10.40;99.90;;;;;;5109503;28;20457;-75
2022/10/27 06:28:45;;;;;;;53.70;11.27;;;10.40;99.90;;;;;;5109756;28;20958;-75
2022/10/27 06:31:11;;;;;;;110.10;13.67;;;10.50;99.90;;;;;;5109046;28;20460;-75
2022/10/27 06:33:39;;;;;;;70.77;11.57;;;10.50;99.90;;;;;;5110271;28;20462;-75
2022/10/27 06:36:06;;;;;;;61.37;11.57;;;10.60;99.90;;;;;;5109809;28;20538;-74
2022/10/27 06:38:33;;;;;;;66.03;11.07;;;10.60;99.90;;;;;;5108725;28;20507;-74
2022/10/27 06:41:00;;;;;;;70.07;11.07;;;10.60;99.90;;;;;;5108721;28;21780;-74
2022/10/27 06:43:26;;;;;;;56.43;11.00;;;10.70;99.90;;;;;;5110153;28;20462;-74
2022/10/27 06:45:53;;;;;;;66.73;10.63;;;10.70;99.90;;;;;;5110100;28;20450;-75
2022/10/27 06:48:19;;;;;;;36.60;10.30;;;10.70;99.90;;;;;;5109793;28;20731;-75
2022/10/27 06:50:47;;;;;;;46.27;11.20;;;10.70;99.90;;;;;;5109547;28;20449;-75
2022/10/27 06:53:14;;;;;;;50.87;12.30;;;10.80;99.90;;;;;;5109036;28;20489;-75
2022/10/27 06:55:41;;;;;;;43.00;14.50;;;10.80;99.90;;;;;;5108203;28;20848;-75
2022/10/27 06:58:08;;;;;;;43.90;12.83;;;10.90;99.90;;;;;;5109253;28;20513;-75
2022/10/27 07:00:36;;;;;;;49.10;11.70;;;10.90;99.90;;;;;;5109558;28;20451;-74
2022/10/27 07:03:07;;;;;;;47.60;12.10;;;11.00;99.90;;;;;;5109191;28;20594;-75
2022/10/27 07:05:33;;;;;;;74.87;13.23;;;11.00;99.90;;;;;;5109581;28;20835;-75
2022/10/27 07:08:01;;;;;;;66.57;12.80;;;11.00;99.90;;;;;;5108900;28;21221;-75
2022/10/27 07:10:28;;;;;;;53.63;11.63;;;11.10;99.90;;;;;;5108713;28;21029;-74
2022/10/27 07:12:57;;;;;;;93.03;15.73;;;11.20;99.90;;;;;;5109078;28;20500;-74
2022/10/27 07:15:24;;;;;;;56.63;13.00;;;11.20;99.90;;;;;;5108778;28;20978;-74
2022/10/27 07:17:55;;;;;;;50.57;10.13;;;11.30;99.90;;;;;;5108545;28;20441;-74
2022/10/27 07:20:22;;;;;;;41.97;10.17;;;11.40;99.90;;;;;;5109121;28;20473;-75
2022/10/27 07:22:49;;;;;;;32.83;9.43;;;11.40;99.90;;;;;;5108506;28;20472;-75
2022/10/27 07:25:17;;;;;;;39.27;9.33;;;11.40;99.90;;;;;;5109052;28;20465;-74
2022/10/27 07:27:52;;;;;;;33.90;8.90;;;11.30;99.90;;;;;;5108548;28;20963;-74
2022/10/27 07:30:19;;;;;;;24.87;7.77;;;11.30;99.90;;;;;;5108860;28;20466;-74
2022/10/27 07:32:45;;;;;;;23.13;7.67;;;11.20;99.90;;;;;;5108229;28;20494;-75
2022/10/27 07:35:12;;;;;;;14.60;7.60;;;11.20;99.90;;;;;;5108357;28;20867;-74
2022/10/27 07:37:42;;;;;;;29.27;8.30;;;11.20;99.90;;;;;;5108291;28;20814;-74
2022/10/27 07:40:10;;;;;;;19.20;7.27;;;11.20;99.90;;;;;;5108310;28;20861;-75
2022/10/27 07:42:43;;;;;;;30.47;7.57;;;11.20;99.90;;;;;;5107597;28;20521;-75
2022/10/27 07:45:10;;;;;;;24.20;8.00;;;11.20;99.90;;;;;;5108421;28;21120;-75
2022/10/27 07:47:37;;;;;;;13.10;7.60;;;11.30;99.90;;;;;;5107448;28;20444;-75
2022/10/27 07:50:05;;;;;;;17.37;8.37;;;11.30;99.90;;;;;;5109021;28;20451;-75
2022/10/27 07:52:36;;;;;;;19.03;7.33;;;11.30;99.90;;;;;;5108319;28;20513;-74
2022/10/27 07:55:03;;;;;;;31.83;8.33;;;11.40;99.90;;;;;;5108003;28;20944;-71
2022/10/27 07:57:29;;;;;;;19.47;7.67;;;11.50;99.90;;;;;;5106917;28;20465;-73
2022/10/27 07:59:57;;;;;;;14.57;7.97;;;11.60;99.90;;;;;;5107454;28;20452;-73
2022/10/27 08:02:24;;;;;;;13.00;7.87;;;11.80;99.90;;;;;;5107277;27;20504;-73
2022/10/27 08:04:51;;;;;;;18.87;8.83;;;12.10;99.90;;;;;;5107644;28;20453;-73
2022/10/27 08:07:17;;;;;;;21.23;9.83;;;12.30;99.90;;;;;;5108135;28;20457;-75
2022/10/27 08:09:44;;;;;;;36.47;9.30;;;12.40;99.90;;;;;;5107778;28;20448;-75
2022/10/27 08:12:11;;;;;;;144.37;10.80;;;12.50;99.90;;;;;;5107691;28;20985;-74
2022/10/27 08:14:37;;;;;;;36.90;8.83;;;12.50;99.90;;;;;;5108059;28;20456;-74
2022/10/27 08:17:05;;;;;;;39.37;9.33;;;12.50;99.90;;;;;;5107825;28;20446;-74
2022/10/27 08:19:32;;;;;;;45.60;9.93;;;12.60;99.90;;;;;;5107558;28;20528;-75
2022/10/27 08:21:59;;;;;;;12.63;8.93;;;12.70;99.90;;;;;;5106844;28;20460;-74
2022/10/27 08:24:25;;;;;;;20.07;8.93;;;12.70;99.90;;;;;;5108368;28;20497;-74
2022/10/27 08:26:52;;;;;;;35.60;9.40;;;12.80;99.90;;;;;;5107741;28;20463;-74
2022/10/27 08:29:19;;;;;;;88.23;9.93;;;12.90;99.90;;;;;;5107293;28;20503;-75
2022/10/27 08:31:45;;;;;;;99.93;12.00;;;12.90;99.90;;;;;;5107133;28;20485;-74
2022/10/27 08:34:13;;;;;;;72.37;10.33;;;12.80;99.90;;;;;;5108028;28;20452;-75
2022/10/27 08:36:40;;;;;;;96.30;10.80;;;12.80;99.90;;;;;;5107517;28;20445;-74
2022/10/27 08:39:08;;;;;;;23.03;9.60;;;12.70;99.90;;;;;;5107975;28;20869;-75
2022/10/27 08:41:41;;;;;;;14.73;9.07;;;12.70;99.90;;;;;;5107291;28;20462;-75
2022/10/27 08:44:18;;;;;;;31.23;9.47;;;12.70;99.90;;;;;;5106981;28;20537;-74
2022/10/27 08:46:49;;;;;;;23.43;9.50;;;12.90;99.90;;;;;;5108273;28;20831;-74
2022/10/27 08:49:33;;;;;;;32.70;9.33;;;13.00;99.90;;;;;;5107411;28;20443;-74
2022/10/27 08:52:08;;;;;;;48.57;10.40;;;13.20;99.90;;;;;;5105761;28;20481;-75
2022/10/27 08:54:36;;;;;;;13.47;9.60;;;13.30;99.90;;;;;;5107299;28;20450;-75
2022/10/27 08:57:04;;;;;;;13.33;9.07;;;13.50;99.90;;;;;;5107539;28;20507;-74
2022/10/27 08:59:33;;;;;;;15.63;9.90;;;13.70;99.90;;;;;;5107299;28;20458;-74
2022/10/27 09:02:12;;;;;;;19.20;9.50;;;13.90;99.90;;;;;;5107262;28;20952;-75
2022/10/27 09:05:00;;;;;;;22.83;9.60;;;13.90;99.90;;;;;;5107503;28;20958;-75
2022/10/27 09:07:36;;;;;;;28.97;10.20;;;14.00;99.90;;;;;;5107210;28;20439;-75
2022/10/27 09:10:06;;;;;;;14.70;10.03;;;14.10;99.90;;;;;;5110074;28;20454;-76
2022/10/27 09:13:03;;;;;;;12.63;8.97;;;14.30;99.90;;;;;;5110574;28;20470;-76
2022/10/27 09:15:41;;;;;;;15.83;8.80;;;14.50;99.90;;;;;;5110878;28;20446;-76
2022/10/27 09:18:15;;;;;;;16.80;9.17;;;14.90;99.90;;;;;;5111006;28;20439;-76
2022/10/27 09:20:46;;;;;;;8.30;7.40;;;15.30;99.90;;;;;;5111527;28;20888;-76
2022/10/27 09:23:16;;;;;;;9.70;7.10;;;15.80;99.90;;;;;;5110991;28;21003;-76
2022/10/27 09:25:46;;;;;;;10.83;6.60;;;16.20;99.90;;;;;;5107476;28;20455;-76
2022/10/27 09:28:19;;;;;;;7.20;6.37;;;16.50;99.90;;;;;;5109632;28;20446;-76
2022/10/27 09:30:49;;;;;;;12.20;7.20;;;16.60;99.90;;;;;;5109131;28;20524;-76
2022/10/27 09:33:20;;;;;;;7.03;6.20;;;16.80;99.90;;;;;;5107970;28;20461;-76
2022/10/27 09:35:50;;;;;;;9.50;6.00;;;17.00;99.90;;;;;;5110235;27;20449;-76
2022/10/27 09:38:22;;;;;;;9.37;6.37;;;16.80;99.90;;;;;;5110825;28;20441;-76
2022/10/27 09:40:49;;;;;;;9.43;7.07;;;16.90;99.90;;;;;;5111234;28;20504;-76
2022/10/27 09:43:15;;;;;;;6.63;5.73;;;17.00;99.90;;;;;;5110672;28;21698;-76
2022/10/27 09:45:43;;;;;;;13.43;6.33;;;17.30;99.90;;;;;;5110556;28;20424;-76
2022/10/27 09:48:17;;;;;;;6.17;5.03;;;17.50;99.90;;;;;;5110622;28;20442;-76
2022/10/27 09:50:49;;;;;;;10.87;5.80;;;17.50;99.90;;;;;;5110593;28;21739;-76
2022/10/27 09:53:43;;;;;;;8.27;4.87;;;17.70;99.90;;;;;;5109244;28;20469;-75
2022/10/27 09:56:14;;;;;;;13.10;5.10;;;17.70;99.90;;;;;;5109857;28;20429;-76
2022/10/27 09:58:49;;;;;;;12.10;4.93;;;17.60;99.90;;;;;;5110698;28;20950;-76
2022/10/27 10:01:16;;;;;;;7.93;5.70;;;17.60;99.90;;;;;;5110762;28;20412;-77
2022/10/27 10:03:59;;;;;;;7.90;5.60;;;17.70;99.90;;;;;;5110840;28;20463;-76
2022/10/27 10:06:30;;;;;;;6.47;5.40;;;17.50;99.90;;;;;;5110297;28;20424;-76
2022/10/27 10:09:16;;;;;;;7.17;5.77;;;17.20;99.90;;;;;;5110399;28;20421;-76
2022/10/27 10:11:42;;;;;;;13.70;5.20;;;17.10;99.90;;;;;;5110102;28;20503;-76
2022/10/27 10:14:21;;;;;;;11.90;4.90;;;17.20;99.90;;;;;;5110616;28;20461;-76
2022/10/27 10:16:48;;;;;;;5.50;4.90;;;17.50;99.90;;;;;;5110512;28;20541;-76
2022/10/27 10:19:17;;;;;;;8.40;4.70;;;17.80;99.90;;;;;;5109617;28;20432;-77
2022/10/27 10:21:47;;;;;;;8.40;4.87;;;18.30;99.90;;;;;;5109156;28;20425;-76
2022/10/27 10:24:22;;;;;;;6.40;5.00;;;18.60;99.90;;;;;;5108624;28;20413;-78
2022/10/27 10:26:51;;;;;;;8.40;4.10;;;18.80;99.90;;;;;;5108336;28;20478;-76
2022/10/27 10:29:27;;;;;;;5.70;4.50;;;19.10;99.90;;;;;;5109649;28;20765;-76
2022/10/27 10:32:09;;;;;;;5.30;4.00;;;19.40;99.90;;;;;;5108746;28;20501;-77
2022/10/27 10:34:36;;;;;;;4.73;4.33;;;19.40;99.90;;;;;;5110123;27;20539;-76
2022/10/27 10:37:03;;;;;;;7.73;4.13;;;19.60;99.90;;;;;;5109270;28;20451;-76
2022/10/27 10:39:36;;;;;;;4.77;3.50;;;19.70;99.90;;;;;;5109664;28;21047;-77
2022/10/27 10:42:17;;;;;;;5.53;4.60;;;19.80;99.90;;;;;;5109744;28;21067;-76
2022/10/27 10:44:44;;;;;;;6.17;3.87;;;19.80;99.90;;;;;;5108128;28;20804;-77
2022/10/27 10:47:23;;;;;;;10.20;4.20;;;19.80;99.90;;;;;;5109510;28;20504;-76
2022/10/27 10:49:54;;;;;;;7.00;4.07;;;19.90;99.90;;;;;;5109569;28;20443;-75
2022/10/27 10:52:24;;;;;;;6.97;3.80;;;20.10;99.90;;;;;;5109063;28;20481;-75
2022/10/27 10:54:52;;;;;;;12.50;4.00;;;20.40;99.90;;;;;;5108826;28;20474;-74
2022/10/27 10:57:28;;;;;;;6.37;3.60;;;20.40;99.90;;;;;;5109435;28;20454;-75
2022/10/27 10:59:57;;;;;;;8.03;2.90;;;20.40;99.90;;;;;;5109098;28;20503;-76
2022/10/27 11:02:28;;;;;;;5.70;3.87;;;20.10;99.90;;;;;;5108969;28;21337;-75
2022/10/27 11:04:57;;;;;;;8.87;3.87;;;19.80;99.90;;;;;;5109207;28;20489;-75
2022/10/27 11:07:26;;;;;;;6.23;3.33;;;19.70;99.90;;;;;;5108665;27;20516;-75
2022/10/27 11:09:59;;;;;;;7.27;3.30;;;19.40;99.90;;;;;;5109000;28;20454;-75
2022/10/27 11:12:32;;;;;;;9.43;3.80;;;19.30;99.90;;;;;;5109097;28;20523;-75
2022/10/27 11:15:04;;;;;;;5.40;3.73;;;19.10;99.90;;;;;;5109305;28;20478;-76
2022/10/27 11:17:34;;;;;;;8.43;3.70;;;19.00;99.90;;;;;;5109502;28;20521;-76
2022/10/27 11:20:03;;;;;;;15.23;4.57;;;19.10;99.90;;;;;;5107325;28;20446;-76
2022/10/27 11:22:31;;;;;;;6.77;3.70;;;18.90;99.90;;;;;;5109181;28;20527;-76
2022/10/27 11:25:04;;;;;;;5.73;3.33;;;18.90;99.90;;;;;;5109103;28;20766;-75
2022/10/27 11:27:39;;;;;;;7.73;4.00;;;18.90;99.90;;;;;;5108959;28;20443;-76
2022/10/27 11:30:18;;;;;;;9.33;3.73;;;19.00;99.90;;;;;;5107827;28;20477;-74
2022/10/27 11:32:56;;;;;;;5.70;4.00;;;19.20;99.90;;;;;;5107130;28;20506;-77
2022/10/27 11:35:28;;;;;;;12.23;4.00;;;19.20;99.90;;;;;;5107291;28;20602;-75
2022/10/27 11:38:03;;;;;;;8.70;4.10;;;19.20;99.90;;;;;;5108440;28;20433;-75
2022/10/27 11:40:44;;;;;;;11.70;4.33;;;19.10;99.90;;;;;;5108475;28;20533;-75
2022/10/27 11:43:15;;;;;;;5.37;4.33;;;19.10;99.90;;;;;;5108621;28;20470;-75
2022/10/27 11:45:47;;;;;;;9.43;4.90;;;19.20;99.90;;;;;;5108681;28;20443;-76
2022/10/27 11:48:19;;;;;;;12.13;4.80;;;19.20;99.90;;;;;;5108599;28;20425;-76
2022/10/27 11:50:50;;;;;;;8.10;4.20;;;19.20;99.90;;;;;;5107452;28;20447;-74
2022/10/27 11:53:18;;;;;;;5.63;3.60;;;19.10;99.90;;;;;;5106252;28;20477;-75
2022/10/27 11:56:02;;;;;;;10.37;5.30;;;19.10;99.90;;;;;;5106615;28;20421;-76
2022/10/27 11:58:36;;;;;;;16.93;5.10;;;19.10;99.90;;;;;;5107348;28;20455;-76
2022/10/27 12:01:10;;;;;;;10.57;5.20;;;19.30;99.90;;;;;;5108068;28;20450;-76
2022/10/27 12:04:02;;;;;;;8.30;4.80;;;19.50;99.90;;;;;;5108174;28;20558;-75
2022/10/27 12:06:35;;;;;;;7.10;5.23;;;19.70;99.90;;;;;;5108514;28;20439;-76
2022/10/27 12:09:13;;;;;;;13.87;5.47;;;19.80;99.90;;;;;;5108727;28;20447;-76
2022/10/27 12:11:51;;;;;;;9.63;5.27;;;19.80;99.90;;;;;;5107816;28;20797;-75
2022/10/27 12:14:26;;;;;;;12.27;4.40;;;19.90;99.90;;;;;;5108479;28;20494;-76
2022/10/27 12:16:59;;;;;;;12.20;4.77;;;20.00;99.90;;;;;;5108723;28;20499;-76
2022/10/27 12:19:29;;;;;;;13.23;4.53;;;19.90;99.90;;;;;;5108655;28;20470;-76
2022/10/27 12:22:03;;;;;;;14.77;5.30;;;19.80;99.90;;;;;;5108120;28;21052;-76
2022/10/27 12:24:38;;;;;;;10.33;5.10;;;19.80;99.90;;;;;;5108059;28;20783;-76
2022/10/27 12:27:14;;;;;;;13.43;5.10;;;19.80;99.90;;;;;;5108545;28;20832;-76
2022/10/27 12:29:46;;;;;;;8.03;4.53;;;19.70;99.90;;;;;;5108061;28;21023;-75
2022/10/27 12:32:17;;;;;;;8.70;4.80;;;19.80;99.90;;;;;;5107702;28;20487;-75
2022/10/27 12:34:48;;;;;;;11.10;5.13;;;19.90;99.90;;;;;;5108240;28;20474;-76
2022/10/27 12:37:22;;;;;;;10.93;4.67;;;19.90;99.90;;;;;;5108500;28;20454;-76
2022/10/27 12:39:55;;;;;;;8.67;4.80;;;20.00;99.90;;;;;;5107995;28;20439;-76
2022/10/27 12:42:32;;;;;;;16.73;5.23;;;20.10;99.90;;;;;;5108011;28;20475;-76
2022/10/27 12:45:14;;;;;;;6.30;4.10;;;20.20;99.90;;;;;;5111877;28;20454;-76
2022/10/27 12:47:52;;;;;;;15.10;5.00;;;20.10;99.90;;;;;;5112550;28;20450;-76